createdAt,value
2019-01-06T00:02:32.774Z,11.97
2019-01-06T00:05:32.375Z,8.97
2019-01-06T00:08:34.687Z,10.03
2019-01-06T00:11:33.984Z,5.97
2019-01-06T00:14:36.446Z,10.70
2019-01-06T00:17:22.174Z,8.33
2019-01-06T00:20:21.730Z,10.43
2019-01-06T00:23:07.570Z,10.43
2019-01-06T00:25:55.194Z,11.43
2019-01-06T00:28:41.210Z,9.87
2019-01-06T00:31:28.833Z,9.17
2019-01-06T00:34:28.206Z,6.40
2019-01-06T00:37:13.500Z,10.07
2019-01-06T00:40:16.185Z,6.90
2019-01-06T00:43:03.795Z,7.90
2019-01-06T00:45:49.974Z,6.33
2019-01-06T00:48:43.646Z,7.80
2019-01-06T00:51:29.633Z,6.77
2019-01-06T00:54:35.010Z,9.23
2019-01-06T00:57:22.627Z,7.57
2019-01-06T01:00:12.870Z,10.83
2019-01-06T01:03:15.221Z,8.63
2019-01-06T01:06:02.842Z,7.83
2019-01-06T01:08:48.878Z,6.53
2019-01-06T01:11:34.802Z,7.67
2019-01-06T01:14:20.943Z,6.23
2019-01-06T01:17:11.226Z,8.63
2019-01-06T01:20:13.867Z,5.10
2019-01-06T01:22:59.677Z,7.27
2019-01-06T01:25:49.843Z,6.67
2019-01-06T01:28:29.435Z,7.83
2019-01-06T01:31:25.754Z,9.17
2019-01-06T01:34:11.578Z,5.30
2019-01-06T01:37:01.930Z,6.60
2019-01-06T01:39:40.003Z,5.03
2019-01-06T01:42:45.415Z,7.47
2019-01-06T01:45:40.763Z,3.97
2019-01-06T01:48:26.599Z,3.97
2019-01-06T01:51:08.112Z,4.73
2019-01-06T01:53:55.613Z,6.33
2019-01-06T01:56:52.281Z,4.47
2019-01-06T01:59:39.387Z,7.23
2019-01-06T02:02:38.662Z,11.80
2019-01-06T02:05:24.421Z,8.93
2019-01-06T02:08:10.614Z,8.00
2019-01-06T02:10:54.770Z,6.90
2019-01-06T02:13:46.136Z,7.33
2019-01-06T02:16:32.206Z,6.33
2019-01-06T02:19:17.594Z,7.23
2019-01-06T02:22:12.646Z,7.67
2019-01-06T02:25:00.253Z,4.83
2019-01-06T02:27:50.611Z,8.70
2019-01-06T02:30:50.227Z,4.17
2019-01-06T02:33:30.563Z,6.47
2019-01-06T02:36:24.844Z,7.37
2019-01-06T02:39:27.422Z,5.53
2019-01-06T02:42:15.026Z,8.50
2019-01-06T02:44:56.467Z,5.80
2019-01-06T02:47:44.121Z,5.27
2019-01-06T02:50:29.975Z,5.67
2019-01-06T02:53:16.056Z,5.20
2019-01-06T02:56:02.087Z,5.10
2019-01-06T02:58:52.652Z,5.07
2019-01-06T03:01:38.935Z,5.10
2019-01-06T03:04:25.062Z,6.70
2019-01-06T03:07:01.538Z,5.80
2019-01-06T03:09:56.134Z,7.60
2019-01-06T03:12:48.213Z,7.93
2019-01-06T03:15:36.377Z,6.10
2019-01-06T03:18:22.450Z,7.87
2019-01-06T03:21:15.898Z,6.97
2019-01-06T03:24:12.237Z,6.47
2019-01-06T03:27:02.586Z,7.10
2019-01-06T03:29:48.313Z,4.90
2019-01-06T03:32:38.602Z,5.97
2019-01-06T03:35:32.143Z,7.20
2019-01-06T03:38:18.030Z,5.20
2019-01-06T03:41:11.923Z,4.43
2019-01-06T03:43:57.878Z,3.27
2019-01-06T03:46:54.355Z,4.43
2019-01-06T03:49:40.535Z,6.67
2019-01-06T03:52:30.218Z,7.80
2019-01-06T03:55:17.854Z,8.40
2019-01-06T03:58:03.938Z,5.60
2019-01-06T04:00:54.206Z,5.07
2019-01-06T04:03:40.431Z,5.33
2019-01-06T04:06:33.677Z,4.00
2019-01-06T04:09:17.336Z,5.37
2019-01-06T04:12:02.995Z,5.37
2019-01-06T04:14:50.650Z,5.93
2019-01-06T04:17:36.728Z,3.47
2019-01-06T04:20:22.828Z,4.10
2019-01-06T04:23:10.419Z,5.50
2019-01-06T04:25:56.377Z,6.60
2019-01-06T04:28:42.664Z,6.47
2019-01-06T04:31:39.254Z,7.00
2019-01-06T04:34:41.815Z,5.37
2019-01-06T04:37:24.375Z,6.03
2019-01-06T04:40:09.979Z,8.60
2019-01-06T04:42:55.831Z,6.97
2019-01-06T04:45:46.011Z,5.67
2019-01-06T04:48:45.541Z,4.23
2019-01-06T04:51:38.891Z,7.80
2019-01-06T04:54:32.025Z,5.13
2019-01-06T04:57:27.611Z,5.33
2019-01-06T05:00:15.196Z,7.77
2019-01-06T05:03:01.118Z,7.03
2019-01-06T05:05:46.878Z,9.70
2019-01-06T05:08:32.935Z,6.83
2019-01-06T05:11:18.831Z,11.13
2019-01-06T05:14:08.768Z,6.73
2019-01-06T05:16:56.356Z,6.77
2019-01-06T05:19:55.795Z,9.00
2019-01-06T05:22:47.992Z,7.63
2019-01-06T05:25:34.769Z,6.57
2019-01-06T05:28:25.131Z,8.23
2019-01-06T05:31:05.157Z,10.63
2019-01-06T05:34:06.769Z,4.67
2019-01-06T05:36:54.075Z,6.33
2019-01-06T05:39:38.100Z,7.67
2019-01-06T05:42:19.327Z,12.23
2019-01-06T05:45:00.739Z,6.53
2019-01-06T05:47:48.622Z,5.50
2019-01-06T05:50:38.993Z,10.90
2019-01-06T05:53:33.723Z,7.80
2019-01-06T05:56:19.432Z,8.87
2019-01-06T05:59:10.723Z,6.60
2019-01-06T06:01:58.301Z,9.97
2019-01-06T06:04:44.422Z,16.03
2019-01-06T06:07:40.915Z,9.20
2019-01-06T06:10:37.260Z,8.00
2019-01-06T06:13:27.731Z,9.53
2019-01-06T06:16:13.658Z,9.47
2019-01-06T06:18:54.374Z,7.43
2019-01-06T06:21:44.832Z,10.50
2019-01-06T06:24:26.042Z,9.83
2019-01-06T06:27:12.033Z,6.83
2019-01-06T06:29:58.005Z,9.80
2019-01-06T06:32:44.047Z,9.20
2019-01-06T06:35:30.088Z,7.17
2019-01-06T06:38:13.468Z,8.50
2019-01-06T06:41:10.857Z,7.40
2019-01-06T06:43:57.058Z,11.83
2019-01-06T06:46:43.234Z,8.40
2019-01-06T06:49:48.578Z,7.43
2019-01-06T06:52:38.383Z,11.90
2019-01-06T06:55:31.398Z,9.17
2019-01-06T06:58:25.308Z,6.60
2019-01-06T07:01:17.798Z,9.10
2019-01-06T07:04:09.154Z,7.93
2019-01-06T07:07:08.447Z,5.90
2019-01-06T07:09:56.032Z,8.27
2019-01-06T07:12:46.177Z,10.30
2019-01-06T07:15:33.767Z,8.23
2019-01-06T07:18:30.870Z,11.70
2019-01-06T07:21:16.858Z,8.63
2019-01-06T07:24:02.793Z,8.73
2019-01-06T07:27:02.455Z,10.43
2019-01-06T07:29:52.949Z,10.77
2019-01-06T07:32:47.042Z,8.83
2019-01-06T07:35:33.015Z,11.73
2019-01-06T07:38:20.130Z,9.67
2019-01-06T07:41:21.738Z,7.60
2019-01-06T07:44:07.763Z,7.27
2019-01-06T07:46:45.901Z,8.37
2019-01-06T07:49:23.225Z,6.07
2019-01-06T07:52:09.274Z,7.83
2019-01-06T07:54:56.867Z,9.60
2019-01-06T07:57:44.476Z,12.93
2019-01-06T08:00:37.981Z,9.97
2019-01-06T08:03:37.300Z,9.97
2019-01-06T08:06:23.450Z,9.83
2019-01-06T08:09:16.950Z,9.30
2019-01-06T08:12:07.474Z,12.87
2019-01-06T08:15:04.152Z,8.93
2019-01-06T08:17:49.886Z,7.60
2019-01-06T08:20:37.594Z,8.90
2019-01-06T08:23:28.079Z,11.57
2019-01-06T08:26:15.722Z,15.47
2019-01-06T08:29:06.043Z,10.27
2019-01-06T08:32:02.612Z,9.60
2019-01-06T08:34:49.003Z,8.00
2019-01-06T08:37:35.103Z,11.27
2019-01-06T08:40:32.089Z,10.20
2019-01-06T08:43:18.951Z,8.80
2019-01-06T08:46:13.854Z,10.70
2019-01-06T08:48:59.911Z,8.23
2019-01-06T08:51:56.312Z,10.00
2019-01-06T08:54:55.823Z,9.23
2019-01-06T08:57:58.143Z,10.87
2019-01-06T09:01:03.678Z,10.33
2019-01-06T09:03:59.920Z,11.70
2019-01-06T09:06:47.557Z,10.07
2019-01-06T09:09:45.355Z,11.63
2019-01-06T09:12:25.563Z,11.37
2019-01-06T09:15:13.670Z,10.90
2019-01-06T09:18:13.135Z,10.90
2019-01-06T09:20:58.998Z,11.60
2019-01-06T09:23:49.535Z,11.47
2019-01-06T09:26:37.947Z,11.03
2019-01-06T09:29:25.664Z,11.17
2019-01-06T09:32:12.819Z,8.87
2019-01-06T09:34:58.673Z,11.80
2019-01-06T09:37:44.634Z,10.37
2019-01-06T09:40:29.320Z,6.07
2019-01-06T09:43:10.275Z,7.93
2019-01-06T09:46:02.091Z,7.03
2019-01-06T09:48:52.318Z,7.00
2019-01-06T09:51:45.783Z,6.67
2019-01-06T09:54:31.903Z,7.87
2019-01-06T09:57:34.446Z,6.47
2019-01-06T10:00:20.540Z,10.17
2019-01-06T10:03:10.931Z,8.50
2019-01-06T10:06:10.368Z,9.87
2019-01-06T10:08:56.172Z,9.27
2019-01-06T10:11:43.772Z,8.57
2019-01-06T10:14:33.998Z,8.30
2019-01-06T10:17:20.290Z,6.77
2019-01-06T10:20:03.622Z,9.17
2019-01-06T10:22:51.331Z,10.13
2019-01-06T10:25:41.674Z,8.17
2019-01-06T10:28:26.630Z,6.27
2019-01-06T10:31:32.293Z,8.80
2019-01-06T10:34:18.463Z,6.63
2019-01-06T10:37:08.642Z,7.20
2019-01-06T10:40:14.045Z,7.93
2019-01-06T10:43:09.318Z,8.00
2019-01-06T10:46:06.472Z,8.17
2019-01-06T10:48:52.513Z,6.37
2019-01-06T10:51:38.440Z,12.20
2019-01-06T10:54:37.428Z,8.80
2019-01-06T10:57:23.619Z,7.03
2019-01-06T11:00:11.218Z,7.20
2019-01-06T11:02:57.614Z,7.57
2019-01-06T11:05:43.381Z,7.07
2019-01-06T11:08:30.521Z,6.23
2019-01-06T11:11:16.474Z,7.20
2019-01-06T11:14:02.455Z,6.53
2019-01-06T11:16:50.119Z,7.03
2019-01-06T11:19:37.070Z,7.60
2019-01-06T11:22:23.127Z,8.33
2019-01-06T11:25:09.259Z,8.80
2019-01-06T11:27:52.333Z,8.43
2019-01-06T11:30:45.726Z,10.37
2019-01-06T11:33:48.056Z,10.47
2019-01-06T11:36:35.881Z,9.73
2019-01-06T11:39:23.045Z,8.63
2019-01-06T11:42:22.465Z,7.57
2019-01-06T11:45:08.294Z,8.03
2019-01-06T11:47:56.196Z,9.37
2019-01-06T11:50:42.343Z,8.27
2019-01-06T11:53:32.810Z,7.00
2019-01-06T11:56:19.012Z,9.83
2019-01-06T11:58:58.693Z,9.43
2019-01-06T12:01:44.525Z,7.47
2019-01-06T12:04:30.683Z,8.67
2019-01-06T12:07:16.599Z,11.87
2019-01-06T12:10:02.537Z,15.40
2019-01-06T12:12:46.675Z,10.07
2019-01-06T12:15:32.718Z,8.40
2019-01-06T12:18:18.942Z,9.17
2019-01-06T12:21:12.483Z,8.77
2019-01-06T12:23:59.250Z,10.97
2019-01-06T12:26:45.378Z,8.47
2019-01-06T12:29:27.046Z,7.70
2019-01-06T12:32:23.238Z,9.07
2019-01-06T12:35:09.741Z,8.17
2019-01-06T12:37:56.087Z,8.20
2019-01-06T12:40:46.980Z,8.83
2019-01-06T12:43:33.174Z,9.20
2019-01-06T12:46:38.826Z,7.80
2019-01-06T12:49:24.930Z,8.60
2019-01-06T12:52:10.410Z,9.40
2019-01-06T12:55:02.086Z,9.43
2019-01-06T12:57:58.413Z,8.70
2019-01-06T13:00:44.215Z,7.87
2019-01-06T13:03:30.386Z,8.43
2019-01-06T13:06:17.987Z,8.83
2019-01-06T13:09:04.167Z,10.97
2019-01-06T13:11:54.371Z,10.10
2019-01-06T13:14:46.322Z,8.20
2019-01-06T13:17:32.570Z,11.67
2019-01-06T13:20:18.798Z,8.53
2019-01-06T13:23:06.410Z,10.40
2019-01-06T13:25:59.114Z,9.33
2019-01-06T13:29:00.892Z,9.37
2019-01-06T13:31:57.782Z,11.07
2019-01-06T13:34:48.445Z,13.13
2019-01-06T13:37:36.064Z,9.40
2019-01-06T13:40:29.431Z,12.13
2019-01-06T13:43:35.030Z,12.13
2019-01-06T13:46:22.805Z,10.03
2019-01-06T13:49:17.973Z,12.53
2019-01-06T13:52:03.967Z,9.83
2019-01-06T13:54:51.152Z,10.37
2019-01-06T13:57:47.895Z,13.07
2019-01-06T14:00:33.358Z,12.10
2019-01-06T14:03:13.120Z,14.53
2019-01-06T14:06:08.270Z,9.20
2019-01-06T14:08:54.498Z,9.93
2019-01-06T14:11:40.326Z,9.23
2019-01-06T14:14:30.763Z,8.80
2019-01-06T14:17:30.205Z,15.07
2019-01-06T14:20:20.399Z,10.47
2019-01-06T14:23:08.132Z,10.27
2019-01-06T14:26:04.402Z,8.60
2019-01-06T14:29:00.850Z,10.90
2019-01-06T14:32:03.194Z,11.27
2019-01-06T14:34:49.197Z,10.87
2019-01-06T14:37:35.290Z,11.40
2019-01-06T14:40:22.165Z,10.70
2019-01-06T14:43:09.783Z,11.97
2019-01-06T14:45:55.580Z,9.63
2019-01-06T14:48:55.211Z,9.67
2019-01-06T14:52:00.774Z,13.67
2019-01-06T14:55:06.113Z,11.37
2019-01-06T14:57:47.152Z,12.37
2019-01-06T15:00:32.560Z,10.07
2019-01-06T15:03:18.718Z,11.17
2019-01-06T15:06:10.986Z,11.37
2019-01-06T15:09:07.513Z,11.10
2019-01-06T15:11:55.139Z,15.60
2019-01-06T15:14:41.312Z,13.93
2019-01-06T15:17:34.438Z,10.57
2019-01-06T15:20:27.571Z,11.97
2019-01-06T15:23:15.821Z,11.23
2019-01-06T15:26:02.017Z,11.70
2019-01-06T15:28:55.500Z,12.03
2019-01-06T15:31:49.173Z,13.50
2019-01-06T15:34:30.655Z,13.83
2019-01-06T15:37:24.344Z,15.60
2019-01-06T15:40:14.785Z,13.10
2019-01-06T15:43:17.122Z,16.17
2019-01-06T15:46:03.202Z,18.57
2019-01-06T15:48:49.313Z,16.17
2019-01-06T15:51:48.856Z,15.23
2019-01-06T15:54:34.927Z,14.57
2019-01-06T15:57:21.058Z,18.50
2019-01-06T16:00:14.690Z,17.13
2019-01-06T16:03:07.880Z,17.33
2019-01-06T16:05:53.733Z,16.63
2019-01-06T16:08:54.862Z,18.47
2019-01-06T16:11:36.741Z,25.30
2019-01-06T16:14:26.157Z,21.13
2019-01-06T16:17:19.759Z,20.70
2019-01-06T16:20:05.581Z,22.73
2019-01-06T16:22:51.591Z,18.93
2019-01-06T16:25:57.198Z,17.17
2019-01-06T16:28:42.337Z,19.03
2019-01-06T16:31:28.251Z,19.53
2019-01-06T16:34:14.487Z,18.10
2019-01-06T16:37:05.071Z,17.93
2019-01-06T16:39:50.875Z,18.53
2019-01-06T16:42:53.227Z,19.07
2019-01-06T16:45:59.031Z,21.43
2019-01-06T16:48:49.520Z,18.70
2019-01-06T16:51:35.565Z,20.57
2019-01-06T16:54:24.397Z,19.87
2019-01-06T16:57:17.796Z,19.13
2019-01-06T17:00:20.226Z,19.10
2019-01-06T17:03:19.990Z,18.23
2019-01-06T17:06:10.325Z,19.47
2019-01-06T17:09:03.798Z,24.00
2019-01-06T17:11:54.702Z,20.27
2019-01-06T17:15:00.024Z,22.43
2019-01-06T17:17:42.967Z,19.60
2019-01-06T17:20:29.050Z,22.87
2019-01-06T17:23:16.730Z,19.77
2019-01-06T17:26:07.346Z,21.87
2019-01-06T17:28:57.881Z,20.50
2019-01-06T17:31:50.175Z,23.07
2019-01-06T17:34:40.490Z,22.33
2019-01-06T17:37:28.090Z,20.77
2019-01-06T17:40:13.842Z,27.23
2019-01-06T17:43:16.083Z,23.90
2019-01-06T17:46:15.799Z,23.00
2019-01-06T17:49:03.397Z,27.17
2019-01-06T17:52:08.707Z,24.37
2019-01-06T17:54:58.346Z,23.27
2019-01-06T17:57:44.612Z,24.43
2019-01-06T18:00:24.637Z,23.13
2019-01-06T18:03:24.340Z,22.90
2019-01-06T18:06:10.070Z,23.13
2019-01-06T18:09:00.471Z,22.07
2019-01-06T18:11:50.995Z,23.93
2019-01-06T18:14:53.466Z,22.23
2019-01-06T18:17:55.769Z,23.50
2019-01-06T18:20:52.504Z,26.77
2019-01-06T18:23:38.312Z,24.07
2019-01-06T18:26:24.503Z,20.90
2019-01-06T18:29:10.371Z,26.17
2019-01-06T18:32:12.837Z,22.67
2019-01-06T18:34:49.675Z,25.07
2019-01-06T18:37:55.330Z,27.43
2019-01-06T18:40:51.815Z,23.97
2019-01-06T18:43:37.757Z,24.73
2019-01-06T18:46:34.199Z,22.77
2019-01-06T18:49:27.779Z,22.87
2019-01-06T18:52:15.375Z,24.13
2019-01-06T18:55:14.998Z,24.23
2019-01-06T18:58:02.595Z,23.77
2019-01-06T19:00:59.093Z,21.93
2019-01-06T19:03:44.170Z,20.93
2019-01-06T19:06:37.722Z,24.57
2019-01-06T19:09:26.798Z,23.40
2019-01-06T19:12:24.341Z,18.77
2019-01-06T19:15:13.182Z,21.13
2019-01-06T19:17:59.100Z,21.23
2019-01-06T19:20:45.043Z,21.27
2019-01-06T19:23:42.682Z,22.07
2019-01-06T19:26:42.240Z,19.10
2019-01-06T19:29:28.158Z,19.27
2019-01-06T19:32:18.772Z,18.47
2019-01-06T19:35:21.920Z,18.40
2019-01-06T19:38:07.904Z,19.73
2019-01-06T19:40:54.040Z,18.03
2019-01-06T19:44:06.231Z,16.80
2019-01-06T19:46:59.527Z,17.63
2019-01-06T19:49:59.171Z,24.97
2019-01-06T19:52:52.737Z,19.13
2019-01-06T19:55:43.099Z,19.20
2019-01-06T19:58:28.915Z,19.17
2019-01-06T20:01:08.018Z,19.00
2019-01-06T20:03:54.007Z,17.87
2019-01-06T20:06:59.752Z,19.23
2019-01-06T20:09:45.657Z,18.97
2019-01-06T20:12:44.254Z,20.67
2019-01-06T20:15:44.003Z,20.47
2019-01-06T20:18:34.523Z,18.70
2019-01-06T20:21:34.295Z,18.77
2019-01-06T20:24:20.398Z,20.37
2019-01-06T20:27:06.711Z,21.60
2019-01-06T20:30:03.434Z,21.80
2019-01-06T20:33:08.945Z,21.97
2019-01-06T20:35:54.998Z,25.23
2019-01-06T20:38:55.837Z,21.50
2019-01-06T20:41:46.105Z,24.43
2019-01-06T20:44:31.944Z,19.70
2019-01-06T20:47:28.529Z,21.07
2019-01-06T20:50:14.656Z,21.13
2019-01-06T20:53:13.986Z,18.77
2019-01-06T20:56:04.133Z,20.50
2019-01-06T20:58:51.739Z,19.70
2019-01-06T21:01:54.499Z,21.60
2019-01-06T21:04:48.079Z,18.60
2019-01-06T21:07:34.064Z,21.50
2019-01-06T21:10:19.830Z,17.33
2019-01-06T21:13:05.731Z,20.13
2019-01-06T21:16:05.058Z,26.20
2019-01-06T21:19:04.308Z,26.10
2019-01-06T21:22:00.602Z,23.87
2019-01-06T21:24:46.692Z,22.80
2019-01-06T21:27:46.087Z,22.63
2019-01-06T21:30:42.818Z,24.23
2019-01-06T21:33:48.095Z,20.93
2019-01-06T21:36:46.050Z,22.33
2019-01-06T21:39:29.943Z,21.77
2019-01-06T21:42:35.373Z,21.73
2019-01-06T21:45:21.587Z,26.20
2019-01-06T21:48:10.479Z,24.00
2019-01-06T21:50:58.765Z,25.73
2019-01-06T21:54:03.506Z,24.00
2019-01-06T21:56:43.005Z,23.13
2019-01-06T21:59:29.117Z,24.57
2019-01-06T22:02:16.772Z,23.67
2019-01-06T22:05:02.812Z,24.30
2019-01-06T22:08:08.503Z,23.37
2019-01-06T22:10:49.964Z,22.47
2019-01-06T22:13:25.650Z,22.50
2019-01-06T22:16:11.492Z,22.27
2019-01-06T22:19:17.110Z,22.10
2019-01-06T22:22:07.527Z,22.60
2019-01-06T22:24:58.801Z,22.30
2019-01-06T22:27:44.802Z,20.17
2019-01-06T22:30:44.047Z,23.53
2019-01-06T22:33:30.026Z,23.87
2019-01-06T22:36:15.846Z,23.87
2019-01-06T22:39:06.490Z,20.40
2019-01-06T22:42:00.098Z,25.70
2019-01-06T22:44:59.663Z,32.07
2019-01-06T22:47:40.257Z,23.63
2019-01-06T22:50:18.603Z,27.50
2019-01-06T22:53:09.112Z,23.30
2019-01-06T22:55:53.495Z,26.63
2019-01-06T22:58:39.494Z,22.90
2019-01-06T23:01:25.749Z,22.57
2019-01-06T23:04:19.461Z,21.53
2019-01-06T23:07:05.234Z,22.37
2019-01-06T23:09:51.388Z,22.60
2019-01-06T23:12:35.330Z,25.60
2019-01-06T23:15:36.110Z,21.23
2019-01-06T23:18:32.630Z,22.37
2019-01-06T23:21:38.296Z,25.27
2019-01-06T23:24:25.891Z,26.07
2019-01-06T23:27:17.595Z,25.07
2019-01-06T23:30:01.015Z,21.33
2019-01-06T23:32:46.998Z,21.30
2019-01-06T23:35:39.677Z,19.30
2019-01-06T23:38:39.106Z,20.10
2019-01-06T23:41:25.082Z,18.80
2019-01-06T23:44:12.694Z,21.00
2019-01-06T23:47:06.306Z,18.47
2019-01-06T23:49:56.701Z,22.47
2019-01-06T23:53:02.555Z,20.03
2019-01-06T23:55:50.422Z,19.70
2019-01-06T23:58:46.797Z,18.60
